createdAt,value
2022-11-21T00:01:29.621Z,28.05
2022-11-21T00:03:56.607Z,28.52
2022-11-21T00:06:23.978Z,26.88
2022-11-21T00:08:51.310Z,28.10
2022-11-21T00:11:18.897Z,29.65
2022-11-21T00:13:45.911Z,30.63
2022-11-21T00:16:15.398Z,27.52
2022-11-21T00:18:44.510Z,28.48
2022-11-21T00:21:17.071Z,28.73
2022-11-21T00:23:45.784Z,26.55
2022-11-21T00:26:14.432Z,28.48
2022-11-21T00:28:42.017Z,26.60
2022-11-21T00:31:10.227Z,27.33
2022-11-21T00:33:39.098Z,25.38
2022-11-21T00:36:09.967Z,25.70
2022-11-21T00:38:37.654Z,26.75
2022-11-21T00:41:08.290Z,27.17
2022-11-21T00:43:35.424Z,26.75
2022-11-21T00:46:03.427Z,25.67
2022-11-21T00:48:31.731Z,27.50
2022-11-21T00:51:00.672Z,25.95
2022-11-21T00:53:28.881Z,28.02
2022-11-21T00:55:56.516Z,27.30
2022-11-21T00:58:23.650Z,26.02
2022-11-21T01:00:51.066Z,28.50
2022-11-21T01:03:20.361Z,27.60
2022-11-21T01:05:47.597Z,25.85
2022-11-21T01:08:14.518Z,26.92
2022-11-21T01:10:41.761Z,27.05
2022-11-21T01:13:11.363Z,28.23
2022-11-21T01:15:38.660Z,26.55
2022-11-21T01:18:05.926Z,26.63
2022-11-21T01:20:33.146Z,27.25
2022-11-21T01:23:00.050Z,25.40
2022-11-21T01:25:27.509Z,25.35
2022-11-21T01:27:54.465Z,26.50
2022-11-21T01:30:21.711Z,25.90
2022-11-21T01:32:50.148Z,25.08
2022-11-21T01:35:18.607Z,27.00
2022-11-21T01:37:49.631Z,27.08
2022-11-21T01:40:21.784Z,26.38
2022-11-21T01:43:02.586Z,26.30
2022-11-21T01:45:55.843Z,26.20
2022-11-21T01:48:28.422Z,25.70
2022-11-21T01:50:59.697Z,28.35
2022-11-21T01:53:26.921Z,28.30
2022-11-21T01:55:54.375Z,27.13
2022-11-21T01:58:22.944Z,29.73
2022-11-21T02:00:50.784Z,28.65
2022-11-21T02:03:24.926Z,27.98
2022-11-21T02:05:54.058Z,28.70
2022-11-21T02:08:22.413Z,29.48
2022-11-21T02:11:23.466Z,28.13
2022-11-21T02:13:53.171Z,28.75
2022-11-21T02:16:20.420Z,31.23
2022-11-21T02:18:47.371Z,29.17
2022-11-21T02:21:29.559Z,28.30
2022-11-21T02:24:17.291Z,30.55
2022-11-21T02:26:48.021Z,26.50
2022-11-21T02:29:18.157Z,28.15
2022-11-21T02:31:45.415Z,27.95
2022-11-21T02:34:12.461Z,27.17
2022-11-21T02:36:45.721Z,27.55
2022-11-21T02:39:27.289Z,28.70
2022-11-21T02:42:05.726Z,28.02
2022-11-21T02:45:08.235Z,29.40
2022-11-21T02:47:38.662Z,26.85
2022-11-21T02:50:19.271Z,28.63
2022-11-21T02:52:46.602Z,25.63
2022-11-21T02:55:15.355Z,25.67
2022-11-21T02:57:42.965Z,25.85
2022-11-21T03:00:11.518Z,25.70
2022-11-21T03:02:38.914Z,24.83
2022-11-21T03:05:10.246Z,27.63
2022-11-21T03:07:37.949Z,28.02
2022-11-21T03:10:05.773Z,27.73
2022-11-21T03:12:35.621Z,26.98
2022-11-21T03:15:03.151Z,27.23
2022-11-21T03:17:30.348Z,25.92
2022-11-21T03:19:58.195Z,28.30
2022-11-21T03:22:28.546Z,28.10
2022-11-21T03:24:55.490Z,27.60
2022-11-21T03:27:22.830Z,27.00
2022-11-21T03:29:49.723Z,27.75
2022-11-21T03:32:16.980Z,27.48
2022-11-21T03:34:44.492Z,27.98
2022-11-21T03:37:11.783Z,27.70
2022-11-21T03:39:38.735Z,28.10
2022-11-21T03:42:05.999Z,29.70
2022-11-21T03:44:35.190Z,28.33
2022-11-21T03:47:05.190Z,27.83
2022-11-21T03:49:32.194Z,27.63
2022-11-21T03:51:59.598Z,27.58
2022-11-21T03:54:26.815Z,26.88
2022-11-21T03:56:54.625Z,27.33
2022-11-21T03:59:21.676Z,27.27
2022-11-21T04:01:49.063Z,25.35
2022-11-21T04:04:18.068Z,26.20
2022-11-21T04:06:48.160Z,28.52
2022-11-21T04:09:15.119Z,26.40
2022-11-21T04:11:42.316Z,26.13
2022-11-21T04:14:09.235Z,26.08
2022-11-21T04:16:36.798Z,26.83
2022-11-21T04:19:03.954Z,26.55
2022-11-21T04:21:31.410Z,26.00
2022-11-21T04:23:58.478Z,26.25
2022-11-21T04:26:25.755Z,27.58
2022-11-21T04:28:52.982Z,25.63
2022-11-21T04:31:20.341Z,26.58
2022-11-21T04:33:47.388Z,26.40
2022-11-21T04:36:14.777Z,25.50
2022-11-21T04:38:41.748Z,25.55
2022-11-21T04:41:09.269Z,25.77
2022-11-21T04:43:36.660Z,25.67
2022-11-21T04:46:03.985Z,23.92
2022-11-21T04:48:32.697Z,20.00
2022-11-21T04:51:00.092Z,15.30
2022-11-21T04:53:26.996Z,10.55
2022-11-21T04:55:56.495Z,7.78
2022-11-21T04:58:23.483Z,4.85
2022-11-21T05:00:50.821Z,4.35
2022-11-21T05:03:17.807Z,3.47
2022-11-21T05:05:47.690Z,3.33
2022-11-21T05:08:14.681Z,2.95
2022-11-21T05:11:02.091Z,3.40
2022-11-21T05:13:29.111Z,3.00
2022-11-21T05:15:57.534Z,2.92
2022-11-21T05:18:24.845Z,2.90
2022-11-21T05:20:52.135Z,2.97
2022-11-21T05:23:19.211Z,2.53
2022-11-21T05:25:46.517Z,2.05
2022-11-21T05:28:13.587Z,2.35
2022-11-21T05:30:40.831Z,2.08
2022-11-21T05:33:10.108Z,2.08
2022-11-21T05:35:42.934Z,2.00
2022-11-21T05:38:10.624Z,2.60
2022-11-21T05:40:37.881Z,4.03
2022-11-21T05:43:23.466Z,3.50
2022-11-21T05:45:51.192Z,3.70
2022-11-21T05:48:18.504Z,3.45
2022-11-21T05:50:49.709Z,2.60
2022-11-21T05:53:17.192Z,2.45
2022-11-21T05:55:45.034Z,2.42
2022-11-21T05:58:12.130Z,2.88
2022-11-21T06:00:39.756Z,2.22
2022-11-21T06:03:26.017Z,2.00
2022-11-21T06:06:08.965Z,1.90
2022-11-21T06:08:43.292Z,1.60
2022-11-21T06:11:13.103Z,1.67
2022-11-21T06:13:40.772Z,1.88
2022-11-21T06:16:10.584Z,1.58
2022-11-21T06:18:50.790Z,1.65
2022-11-21T06:21:28.851Z,2.25
2022-11-21T06:26:26.976Z,1.13
2022-11-21T06:28:55.106Z,0.90
2022-11-21T06:31:27.188Z,0.80
2022-11-21T06:33:58.902Z,0.90
2022-11-21T06:36:26.613Z,1.00
2022-11-21T06:38:55.255Z,1.40
2022-11-21T06:41:25.223Z,0.82
2022-11-21T06:43:52.731Z,1.05
2022-11-21T06:46:20.173Z,0.90
2022-11-21T06:48:47.207Z,1.05
2022-11-21T06:51:20.410Z,1.38
2022-11-21T06:53:48.799Z,0.90
2022-11-21T06:56:16.071Z,0.65
2022-11-21T06:58:45.452Z,0.60
2022-11-21T07:01:13.601Z,0.93
2022-11-21T07:03:40.720Z,0.60
2022-11-21T07:06:10.124Z,0.80
2022-11-21T07:08:37.342Z,1.00
2022-11-21T07:13:54.302Z,0.70
2022-11-21T07:16:26.443Z,0.90
2022-11-21T07:18:53.819Z,0.70
2022-11-21T07:21:23.665Z,0.93
2022-11-21T07:23:50.631Z,0.95
2022-11-21T07:26:21.010Z,0.70
2022-11-21T07:28:50.816Z,0.70
2022-11-21T07:31:18.088Z,0.70
2022-11-21T07:33:45.793Z,0.60
2022-11-21T07:36:16.131Z,0.80
2022-11-21T07:38:43.166Z,0.73
2022-11-21T07:41:10.612Z,0.65
2022-11-21T07:43:37.790Z,0.98
2022-11-21T07:46:05.215Z,0.60
2022-11-21T07:48:32.298Z,1.00
2022-11-21T07:50:59.566Z,1.10
2022-11-21T07:53:28.733Z,1.05
2022-11-21T07:55:59.057Z,0.85
2022-11-21T07:58:26.244Z,0.70
2022-11-21T08:00:53.873Z,0.60
2022-11-21T08:03:25.324Z,0.90
2022-11-21T08:05:55.285Z,0.82
2022-11-21T08:08:22.330Z,0.80
2022-11-21T08:10:51.489Z,0.70
2022-11-21T08:13:18.562Z,0.90
2022-11-21T08:15:45.920Z,0.60
2022-11-21T08:18:21.077Z,0.60
2022-11-21T08:20:48.661Z,0.70
2022-11-21T08:23:16.027Z,0.70
2022-11-21T08:25:43.858Z,1.00
2022-11-21T08:28:12.409Z,1.00
2022-11-21T08:30:40.771Z,1.00
2022-11-21T08:33:08.408Z,1.00
2022-11-21T08:35:37.808Z,0.93
2022-11-21T08:38:09.775Z,0.80
2022-11-21T08:40:37.127Z,0.90
2022-11-21T08:43:09.331Z,0.70
2022-11-21T08:45:38.123Z,0.82
2022-11-21T08:48:10.766Z,0.90
2022-11-21T08:50:40.281Z,1.00
2022-11-21T08:53:07.329Z,0.85
2022-11-21T08:55:37.254Z,0.73
2022-11-21T08:58:04.239Z,0.50
2022-11-21T09:00:31.708Z,0.90
2022-11-21T09:02:58.634Z,0.60
2022-11-21T09:05:25.873Z,0.63
2022-11-21T09:07:59.276Z,0.70
2022-11-21T09:10:27.606Z,0.55
2022-11-21T09:12:57.407Z,0.63
2022-11-21T09:15:43.306Z,1.20
2022-11-21T09:18:14.155Z,1.00
2022-11-21T09:20:44.735Z,1.23
2022-11-21T09:23:14.142Z,0.90
2022-11-21T09:25:42.464Z,0.73
2022-11-21T09:28:11.475Z,0.95
2022-11-21T09:30:42.420Z,0.60
2022-11-21T09:33:14.576Z,0.82
2022-11-21T09:35:48.082Z,0.80
2022-11-21T09:38:17.514Z,1.23
2022-11-21T09:40:48.884Z,1.20
2022-11-21T09:43:21.830Z,0.93
2022-11-21T09:45:59.200Z,1.10
2022-11-21T09:48:41.517Z,0.98
2022-11-21T09:51:13.947Z,0.98
2022-11-21T09:54:07.605Z,0.90
2022-11-21T09:56:41.219Z,0.75
2022-11-21T09:59:40.043Z,0.93
2022-11-21T10:02:16.075Z,1.08
2022-11-21T10:07:26.599Z,0.77
2022-11-21T10:10:24.738Z,0.80
2022-11-21T10:13:09.441Z,0.80
2022-11-21T10:18:47.010Z,0.90
2022-11-21T10:22:01.994Z,0.70
2022-11-21T10:24:57.693Z,0.98
2022-11-21T10:27:36.720Z,0.70
2022-11-21T10:30:20.700Z,0.98
2022-11-21T10:32:49.761Z,0.65
2022-11-21T10:35:29.235Z,0.68
2022-11-21T10:37:58.198Z,0.70
2022-11-21T10:40:28.643Z,0.85
2022-11-21T10:43:32.465Z,0.90
2022-11-21T10:45:59.787Z,0.88
2022-11-21T10:48:26.962Z,0.68
2022-11-21T10:51:18.750Z,0.73
2022-11-21T10:54:07.756Z,1.25
2022-11-21T10:56:37.127Z,0.90
2022-11-21T10:59:19.210Z,1.05
2022-11-21T11:01:56.148Z,0.77
2022-11-21T11:04:28.622Z,1.00
2022-11-21T11:07:00.299Z,0.90
2022-11-21T11:09:35.099Z,0.70
2022-11-21T11:12:46.802Z,0.77
2022-11-21T11:15:23.230Z,1.00
2022-11-21T11:18:05.622Z,0.65
2022-11-21T11:20:45.141Z,0.40
2022-11-21T11:23:25.240Z,0.82
2022-11-21T11:25:58.491Z,0.77
2022-11-21T11:28:27.428Z,0.60
2022-11-21T11:30:55.911Z,0.68
2022-11-21T11:33:39.928Z,0.77
2022-11-21T11:36:14.741Z,0.68
2022-11-21T11:38:59.691Z,0.80
2022-11-21T11:42:01.858Z,0.50
2022-11-21T11:45:25.964Z,0.63
2022-11-21T11:47:58.939Z,0.55
2022-11-21T11:50:32.599Z,0.40
2022-11-21T11:53:17.493Z,0.40
2022-11-21T11:56:00.128Z,0.20
2022-11-21T11:58:31.833Z,0.40
2022-11-21T12:01:44.017Z,0.50
2022-11-21T12:04:18.274Z,0.60
2022-11-21T12:07:46.680Z,0.52
2022-11-21T12:09:54.990Z,0.40
2022-11-21T12:12:47.130Z,0.85
2022-11-21T12:15:47.025Z,0.60
2022-11-21T12:18:20.143Z,0.60
2022-11-21T12:20:56.417Z,0.38
2022-11-21T12:23:56.036Z,0.60
2022-11-21T12:26:29.091Z,0.60
2022-11-21T12:29:24.275Z,0.80
2022-11-21T12:32:24.826Z,0.60
2022-11-21T12:35:28.987Z,0.80
2022-11-21T12:38:07.200Z,0.52
2022-11-21T12:41:25.726Z,0.57
2022-11-21T12:44:08.026Z,0.60
2022-11-21T12:47:23.377Z,0.55
2022-11-21T12:50:21.856Z,0.60
2022-11-21T12:53:16.339Z,0.68
2022-11-21T12:55:43.339Z,0.90
2022-11-21T12:58:19.714Z,0.40
2022-11-21T13:01:24.640Z,0.40
2022-11-21T13:03:59.847Z,0.65
2022-11-21T13:06:35.491Z,0.70
2022-11-21T13:09:08.171Z,0.75
2022-11-21T13:11:59.954Z,0.70
2022-11-21T13:14:42.311Z,0.73
2022-11-21T13:17:12.212Z,1.10
2022-11-21T13:19:50.546Z,0.85
2022-11-21T13:22:38.078Z,1.08
2022-11-21T13:25:33.921Z,0.65
2022-11-21T13:28:21.176Z,0.93
2022-11-21T13:30:58.122Z,0.70
2022-11-21T13:33:39.903Z,0.77
2022-11-21T13:36:13.812Z,0.43
2022-11-21T13:38:55.702Z,0.75
2022-11-21T13:41:53.865Z,1.30
2022-11-21T13:44:33.343Z,1.30
2022-11-21T13:47:10.489Z,0.93
2022-11-21T13:49:43.684Z,1.30
2022-11-21T13:52:20.167Z,1.38
2022-11-21T13:55:05.868Z,0.80
2022-11-21T13:57:45.993Z,1.40
2022-11-21T14:00:25.144Z,1.30
2022-11-21T14:03:01.161Z,0.98
2022-11-21T14:10:56.101Z,1.00
2022-11-21T14:13:47.053Z,0.88
2022-11-21T14:16:19.815Z,0.82
2022-11-21T14:18:47.664Z,1.10
2022-11-21T14:21:31.096Z,1.20
2022-11-21T14:24:04.515Z,1.08
2022-11-21T14:26:52.549Z,1.10
2022-11-21T14:29:24.104Z,0.90
2022-11-21T14:31:51.047Z,0.95
2022-11-21T14:34:44.742Z,1.55
2022-11-21T14:37:13.228Z,1.05
2022-11-21T14:39:44.950Z,0.68
2022-11-21T14:42:15.340Z,0.85
2022-11-21T14:44:45.934Z,0.75
2022-11-21T14:47:21.546Z,0.90
2022-11-21T14:50:00.870Z,0.70
2022-11-21T14:52:33.306Z,0.90
2022-11-21T14:55:34.400Z,1.00
2022-11-21T14:58:03.864Z,0.57
2022-11-21T15:01:03.211Z,0.70
2022-11-21T15:03:22.886Z,0.60
2022-11-21T15:06:07.397Z,0.80
2022-11-21T15:11:32.840Z,0.85
2022-11-21T15:14:15.346Z,1.10
2022-11-21T15:16:48.167Z,0.85
2022-11-21T15:19:25.910Z,1.20
2022-11-21T15:21:56.544Z,1.10
2022-11-21T15:24:43.419Z,1.00
2022-11-21T15:27:26.101Z,1.15
2022-11-21T15:30:11.375Z,1.02
2022-11-21T15:33:01.268Z,1.17
2022-11-21T15:35:48.126Z,0.88
2022-11-21T15:38:27.898Z,1.00
2022-11-21T15:41:01.604Z,1.20
2022-11-21T15:43:40.811Z,1.00
2022-11-21T15:46:15.481Z,0.70
2022-11-21T15:49:31.529Z,0.70
2022-11-21T15:52:12.807Z,0.80
2022-11-21T15:54:40.191Z,1.05
2022-11-21T15:57:09.165Z,1.65
2022-11-21T15:59:36.429Z,1.20
2022-11-21T16:02:03.554Z,1.08
2022-11-21T16:04:30.844Z,1.10
2022-11-21T16:07:00.325Z,1.10
2022-11-21T16:09:29.742Z,1.30
2022-11-21T16:11:56.976Z,139.15
2022-11-21T16:14:24.184Z,70.20
2022-11-21T16:16:51.118Z,48.25
2022-11-21T16:19:19.178Z,43.28
2022-11-21T16:21:46.260Z,10.20
2022-11-21T16:24:13.844Z,3.00
2022-11-21T16:26:40.878Z,5.43
2022-11-21T16:29:10.792Z,8.20
2022-11-21T16:31:38.020Z,10.65
2022-11-21T16:34:05.618Z,8.63
2022-11-21T16:36:32.854Z,6.55
2022-11-21T16:39:09.047Z,4.25
2022-11-21T16:41:39.477Z,4.20
2022-11-21T16:44:16.437Z,4.40
2022-11-21T16:46:48.511Z,4.50
2022-11-21T16:49:20.652Z,4.25
2022-11-21T16:51:47.750Z,5.00
2022-11-21T16:54:18.109Z,5.22
2022-11-21T16:56:47.107Z,5.05
2022-11-21T16:59:15.105Z,5.30
2022-11-21T17:01:43.460Z,7.32
2022-11-21T17:04:16.796Z,6.20
2022-11-21T17:06:47.016Z,4.72
2022-11-21T17:09:16.686Z,4.20
2022-11-21T17:11:44.555Z,3.40
2022-11-21T17:14:14.309Z,5.30
2022-11-21T17:16:42.213Z,15.35
2022-11-21T17:19:12.364Z,3.03
2022-11-21T17:21:39.496Z,3.20
2022-11-21T17:24:07.411Z,3.47
2022-11-21T17:26:38.617Z,3.03
2022-11-21T17:29:06.315Z,2.75
2022-11-21T17:31:34.802Z,2.50
2022-11-21T17:34:02.778Z,2.50
2022-11-21T17:36:31.247Z,2.40
2022-11-21T17:38:58.971Z,3.15
2022-11-21T17:41:27.411Z,2.80
2022-11-21T17:43:59.789Z,3.00
2022-11-21T17:46:29.037Z,3.08
2022-11-21T17:54:20.178Z,4.30
2022-11-21T17:56:53.916Z,4.28
2022-11-21T17:59:24.211Z,5.22
2022-11-21T18:01:54.434Z,5.05
2022-11-21T18:04:25.516Z,6.75
2022-11-21T18:06:53.583Z,6.25
2022-11-21T18:09:21.609Z,6.00
2022-11-21T18:11:49.672Z,6.18
2022-11-21T18:14:17.478Z,7.38
2022-11-21T18:16:52.581Z,7.22
2022-11-21T18:19:21.831Z,6.90
2022-11-21T18:21:50.583Z,6.25
2022-11-21T18:24:18.520Z,6.28
2022-11-21T18:26:47.558Z,7.25
2022-11-21T18:32:05.852Z,6.43
2022-11-21T18:34:33.830Z,7.35
2022-11-21T18:37:02.100Z,6.72
2022-11-21T18:39:31.697Z,8.93
2022-11-21T18:42:00.093Z,9.25
2022-11-21T18:44:28.079Z,10.45
2022-11-21T18:46:56.437Z,10.75
2022-11-21T18:49:24.182Z,10.95
2022-11-21T18:51:54.965Z,8.75
2022-11-21T18:54:22.943Z,10.05
2022-11-21T18:56:51.495Z,9.45
2022-11-21T18:59:19.542Z,9.80
2022-11-21T19:01:47.601Z,9.52
2022-11-21T19:04:15.664Z,8.93
2022-11-21T19:06:44.250Z,8.63
2022-11-21T19:09:15.292Z,8.55
2022-11-21T19:11:43.172Z,10.55
2022-11-21T19:14:13.560Z,10.73
2022-11-21T19:16:42.188Z,10.65
2022-11-21T19:22:05.054Z,11.88
2022-11-21T19:24:34.184Z,12.00
2022-11-21T19:27:02.464Z,14.40
2022-11-21T19:29:32.188Z,11.98
2022-11-21T19:32:00.832Z,12.98
2022-11-21T19:34:29.151Z,9.70
2022-11-21T19:36:57.301Z,10.85
2022-11-21T19:39:25.204Z,9.23
2022-11-21T19:41:53.544Z,9.02
2022-11-21T19:44:26.097Z,8.85
2022-11-21T19:46:54.515Z,9.73
2022-11-21T19:49:22.515Z,8.88
2022-11-21T19:51:52.072Z,7.82
2022-11-21T19:54:21.514Z,8.48
2022-11-21T19:56:49.541Z,9.38
2022-11-21T19:59:16.849Z,10.27
2022-11-21T20:01:51.151Z,9.88
2022-11-21T20:04:24.253Z,9.65
2022-11-21T20:06:52.442Z,10.07
2022-11-21T20:09:22.557Z,9.75
2022-11-21T20:11:55.455Z,10.20
2022-11-21T20:14:23.357Z,10.95
2022-11-21T20:16:53.482Z,12.70
2022-11-21T20:19:23.320Z,12.13
2022-11-21T20:21:55.124Z,14.55
2022-11-21T20:24:23.362Z,13.80
2022-11-21T20:26:53.488Z,13.45
2022-11-21T20:29:24.983Z,12.88
2022-11-21T20:31:54.899Z,12.63
2022-11-21T20:34:24.264Z,12.80
2022-11-21T20:36:54.227Z,12.77
2022-11-21T20:39:22.468Z,14.68
2022-11-21T20:41:53.299Z,13.82
2022-11-21T20:47:13.237Z,14.55
2022-11-21T20:50:05.022Z,14.73
2022-11-21T20:55:22.467Z,16.55
2022-11-21T20:57:50.422Z,15.30
2022-11-21T21:00:19.398Z,19.25
2022-11-21T21:02:47.588Z,19.33
2022-11-21T21:05:17.155Z,20.10
2022-11-21T21:07:45.067Z,22.70
2022-11-21T21:10:12.897Z,22.13
2022-11-21T21:12:45.721Z,21.75
2022-11-21T21:15:16.192Z,23.50
2022-11-21T21:17:44.108Z,23.40
2022-11-21T21:20:11.942Z,23.48
2022-11-21T21:22:39.877Z,24.30
2022-11-21T21:25:07.850Z,23.33
2022-11-21T21:27:35.487Z,22.00
2022-11-21T21:30:06.064Z,21.65
2022-11-21T21:32:36.038Z,23.23
2022-11-21T21:35:03.097Z,22.92
2022-11-21T21:37:30.496Z,25.13
2022-11-21T21:39:57.507Z,24.67
2022-11-21T21:42:25.168Z,24.17
2022-11-21T21:44:52.251Z,22.77
2022-11-21T21:47:21.957Z,22.05
2022-11-21T21:49:49.143Z,20.65
2022-11-21T21:52:17.679Z,20.73
2022-11-21T21:54:44.636Z,21.63
2022-11-21T21:57:11.964Z,20.70
2022-11-21T21:59:38.963Z,20.30
2022-11-21T22:02:06.752Z,20.52
2022-11-21T22:04:34.124Z,19.55
2022-11-21T22:07:01.526Z,19.33
2022-11-21T22:09:30.029Z,19.85
2022-11-21T22:11:57.600Z,20.60
2022-11-21T22:14:26.969Z,20.55
2022-11-21T22:16:55.052Z,20.15
2022-11-21T22:19:22.231Z,20.58
2022-11-21T22:21:49.544Z,19.60
2022-11-21T22:24:25.495Z,20.65
2022-11-21T22:26:56.638Z,23.98
2022-11-21T22:29:24.142Z,25.02
2022-11-21T22:31:51.679Z,28.35
2022-11-21T22:34:18.769Z,32.20
2022-11-21T22:36:49.200Z,31.20
2022-11-21T22:39:16.770Z,32.65
2022-11-21T22:41:44.064Z,32.47
2022-11-21T22:44:11.087Z,31.10
2022-11-21T22:46:38.606Z,31.38
2022-11-21T22:49:05.593Z,28.45
2022-11-21T22:51:33.008Z,27.80
2022-11-21T22:54:00.116Z,28.88
2022-11-21T22:56:28.003Z,24.98
2022-11-21T22:58:56.126Z,28.25
2022-11-21T23:01:25.758Z,27.25
2022-11-21T23:03:53.132Z,27.33
2022-11-21T23:06:23.816Z,25.85
2022-11-21T23:08:55.521Z,26.38
2022-11-21T23:11:26.249Z,26.50
2022-11-21T23:13:56.716Z,23.20
2022-11-21T23:16:24.576Z,22.65
2022-11-21T23:18:53.607Z,22.58
2022-11-21T23:21:21.479Z,21.40
2022-11-21T23:23:48.710Z,21.42
2022-11-21T23:26:16.004Z,21.92
2022-11-21T23:28:43.059Z,21.65
2022-11-21T23:31:10.591Z,21.50
2022-11-21T23:33:37.944Z,23.35
2022-11-21T23:36:05.714Z,23.95
2022-11-21T23:38:32.780Z,23.23
2022-11-21T23:41:00.126Z,23.25
2022-11-21T23:43:27.385Z,23.92
2022-11-21T23:45:54.984Z,24.02
2022-11-21T23:48:24.096Z,23.10
2022-11-21T23:50:52.034Z,24.80
2022-11-21T23:53:19.536Z,25.42
2022-11-21T23:55:47.217Z,23.73
2022-11-21T23:58:14.663Z,25.85
